Terminal Aerodrome Forecast
Issued by NWS

Home | Current Version | Previous Version | Graphics & Text | Print | Product List | Glossary On
Versions: 1 2 3 4 5 6 7 8 9 10 11 12 13 14 15 16
000
FTUS43 KTOP 240400 AAA
TAFFOE
TAF AMD
KFOE 240423Z 2404/2424 34011KT P6SM -RA OVC014
     FM240700 34012G21KT 6SM -RASN BR OVC012
     FM241200 32013G20KT P6SM OVC008
     FM241700 32012KT P6SM OVC016
     FM242300 29010KT P6SM SCT025=

USA.gov is the U.S. government's official web portal to all federal, state and local government web resources and services.